sensor_id;sensor_type;location;lat;lon;timestamp;P1;durP1;ratioP1;P2;durP2;ratioP2
870;SDS011;422;51.280;7.236;2023-07-28T00:02:19;8.23;;;7.50;;
870;SDS011;422;51.280;7.236;2023-07-28T00:04:47;8.53;;;7.63;;
870;SDS011;422;51.280;7.236;2023-07-28T00:07:17;8.60;;;7.90;;
870;SDS011;422;51.280;7.236;2023-07-28T00:09:45;8.87;;;8.07;;
870;SDS011;422;51.280;7.236;2023-07-28T00:12:12;11.83;;;8.70;;
870;SDS011;422;51.280;7.236;2023-07-28T00:14:39;9.03;;;8.27;;
870;SDS011;422;51.280;7.236;2023-07-28T00:17:07;9.83;;;9.03;;
870;SDS011;422;51.280;7.236;2023-07-28T00:19:34;9.60;;;8.80;;
870;SDS011;422;51.280;7.236;2023-07-28T00:22:01;9.37;;;8.47;;
870;SDS011;422;51.280;7.236;2023-07-28T00:24:29;8.47;;;7.67;;
870;SDS011;422;51.280;7.236;2023-07-28T00:26:57;8.63;;;7.83;;
870;SDS011;422;51.280;7.236;2023-07-28T00:29:24;9.10;;;8.27;;
870;SDS011;422;51.280;7.236;2023-07-28T00:31:51;9.07;;;8.23;;
870;SDS011;422;51.280;7.236;2023-07-28T00:34:18;9.37;;;8.57;;
870;SDS011;422;51.280;7.236;2023-07-28T00:36:45;9.10;;;8.30;;
870;SDS011;422;51.280;7.236;2023-07-28T00:39:12;8.90;;;8.20;;
870;SDS011;422;51.280;7.236;2023-07-28T00:41:41;7.73;;;7.13;;
870;SDS011;422;51.280;7.236;2023-07-28T00:44:08;7.90;;;7.20;;
870;SDS011;422;51.280;7.236;2023-07-28T00:46:36;7.83;;;7.20;;
870;SDS011;422;51.280;7.236;2023-07-28T00:49:03;7.17;;;6.57;;
870;SDS011;422;51.280;7.236;2023-07-28T00:51:30;7.57;;;6.90;;
870;SDS011;422;51.280;7.236;2023-07-28T00:53:58;6.57;;;5.93;;
870;SDS011;422;51.280;7.236;2023-07-28T00:56:27;6.57;;;6.00;;
870;SDS011;422;51.280;7.236;2023-07-28T00:58:56;6.80;;;6.20;;
870;SDS011;422;51.280;7.236;2023-07-28T01:01:23;6.97;;;6.43;;
870;SDS011;422;51.280;7.236;2023-07-28T01:03:52;7.10;;;6.33;;
870;SDS011;422;51.280;7.236;2023-07-28T01:06:20;8.00;;;6.63;;
870;SDS011;422;51.280;7.236;2023-07-28T01:08:56;6.47;;;5.87;;
870;SDS011;422;51.280;7.236;2023-07-28T01:11:28;7.80;;;7.10;;
870;SDS011;422;51.280;7.236;2023-07-28T01:13:57;7.73;;;6.77;;
870;SDS011;422;51.280;7.236;2023-07-28T01:16:24;6.37;;;5.87;;
870;SDS011;422;51.280;7.236;2023-07-28T01:18:51;7.10;;;6.10;;
870;SDS011;422;51.280;7.236;2023-07-28T01:21:20;6.60;;;5.90;;
870;SDS011;422;51.280;7.236;2023-07-28T01:23:52;5.70;;;4.90;;
870;SDS011;422;51.280;7.236;2023-07-28T01:26:31;4.80;;;4.40;;
870;SDS011;422;51.280;7.236;2023-07-28T01:28:59;6.27;;;4.60;;
870;SDS011;422;51.280;7.236;2023-07-28T01:31:28;5.27;;;4.77;;
870;SDS011;422;51.280;7.236;2023-07-28T01:33:55;4.33;;;3.93;;
870;SDS011;422;51.280;7.236;2023-07-28T01:36:22;4.63;;;4.10;;
870;SDS011;422;51.280;7.236;2023-07-28T01:38:49;5.30;;;4.80;;
870;SDS011;422;51.280;7.236;2023-07-28T01:41:16;5.87;;;4.80;;
870;SDS011;422;51.280;7.236;2023-07-28T01:43:45;5.30;;;4.80;;
870;SDS011;422;51.280;7.236;2023-07-28T01:46:12;4.57;;;4.17;;
870;SDS011;422;51.280;7.236;2023-07-28T01:48:39;4.87;;;4.47;;
870;SDS011;422;51.280;7.236;2023-07-28T01:51:06;4.73;;;4.33;;
870;SDS011;422;51.280;7.236;2023-07-28T01:53:33;5.70;;;5.20;;
870;SDS011;422;51.280;7.236;2023-07-28T01:56:00;5.30;;;4.77;;
870;SDS011;422;51.280;7.236;2023-07-28T01:58:28;4.40;;;4.00;;
870;SDS011;422;51.280;7.236;2023-07-28T02:00:56;5.57;;;4.47;;
870;SDS011;422;51.280;7.236;2023-07-28T02:03:24;4.90;;;4.10;;
870;SDS011;422;51.280;7.236;2023-07-28T02:05:51;6.77;;;3.87;;
870;SDS011;422;51.280;7.236;2023-07-28T02:08:18;5.03;;;4.00;;
870;SDS011;422;51.280;7.236;2023-07-28T02:10:45;3.93;;;2.97;;
870;SDS011;422;51.280;7.236;2023-07-28T02:13:13;3.40;;;3.00;;
870;SDS011;422;51.280;7.236;2023-07-28T02:15:40;3.33;;;3.03;;
870;SDS011;422;51.280;7.236;2023-07-28T02:18:08;4.00;;;2.40;;
870;SDS011;422;51.280;7.236;2023-07-28T02:20:35;3.07;;;2.77;;
870;SDS011;422;51.280;7.236;2023-07-28T02:23:04;2.53;;;2.33;;
870;SDS011;422;51.280;7.236;2023-07-28T02:25:31;2.60;;;2.23;;
870;SDS011;422;51.280;7.236;2023-07-28T02:27:58;3.50;;;3.00;;
870;SDS011;422;51.280;7.236;2023-07-28T02:30:25;3.50;;;3.20;;
870;SDS011;422;51.280;7.236;2023-07-28T02:32:52;3.67;;;2.80;;
870;SDS011;422;51.280;7.236;2023-07-28T02:35:21;3.00;;;2.57;;
870;SDS011;422;51.280;7.236;2023-07-28T02:37:48;4.50;;;1.80;;
870;SDS011;422;51.280;7.236;2023-07-28T02:40:15;2.73;;;2.03;;
870;SDS011;422;51.280;7.236;2023-07-28T02:42:42;2.50;;;2.30;;
870;SDS011;422;51.280;7.236;2023-07-28T02:45:10;4.20;;;2.83;;
870;SDS011;422;51.280;7.236;2023-07-28T02:47:37;4.37;;;2.50;;
870;SDS011;422;51.280;7.236;2023-07-28T02:50:04;3.70;;;2.43;;
870;SDS011;422;51.280;7.236;2023-07-28T02:52:33;2.60;;;2.40;;
870;SDS011;422;51.280;7.236;2023-07-28T02:55:00;3.00;;;2.70;;
870;SDS011;422;51.280;7.236;2023-07-28T02:57:27;2.90;;;2.37;;
870;SDS011;422;51.280;7.236;2023-07-28T02:59:55;2.97;;;2.40;;
870;SDS011;422;51.280;7.236;2023-07-28T03:02:22;3.07;;;2.17;;
870;SDS011;422;51.280;7.236;2023-07-28T03:04:49;2.40;;;2.10;;
870;SDS011;422;51.280;7.236;2023-07-28T03:07:16;2.50;;;1.93;;
870;SDS011;422;51.280;7.236;2023-07-28T03:09:45;2.70;;;2.30;;
870;SDS011;422;51.280;7.236;2023-07-28T03:12:12;2.63;;;1.67;;
870;SDS011;422;51.280;7.236;2023-07-28T03:14:39;2.10;;;1.60;;
870;SDS011;422;51.280;7.236;2023-07-28T03:17:06;2.30;;;2.00;;
870;SDS011;422;51.280;7.236;2023-07-28T03:19:34;2.53;;;1.80;;
870;SDS011;422;51.280;7.236;2023-07-28T03:22:01;3.17;;;2.33;;
870;SDS011;422;51.280;7.236;2023-07-28T03:24:28;5.03;;;1.80;;
870;SDS011;422;51.280;7.236;2023-07-28T03:26:56;2.40;;;1.70;;
870;SDS011;422;51.280;7.236;2023-07-28T03:29:23;2.10;;;1.53;;
870;SDS011;422;51.280;7.236;2023-07-28T03:31:50;3.80;;;1.80;;
870;SDS011;422;51.280;7.236;2023-07-28T03:34:18;2.30;;;1.80;;
870;SDS011;422;51.280;7.236;2023-07-28T03:36:45;2.20;;;1.53;;
870;SDS011;422;51.280;7.236;2023-07-28T03:39:12;2.10;;;1.40;;
870;SDS011;422;51.280;7.236;2023-07-28T03:41:39;2.70;;;1.70;;
870;SDS011;422;51.280;7.236;2023-07-28T03:44:07;2.03;;;1.63;;
870;SDS011;422;51.280;7.236;2023-07-28T03:46:35;2.10;;;1.63;;
870;SDS011;422;51.280;7.236;2023-07-28T03:49:02;2.70;;;1.93;;
870;SDS011;422;51.280;7.236;2023-07-28T03:51:30;2.03;;;1.47;;
870;SDS011;422;51.280;7.236;2023-07-28T03:53:57;2.97;;;1.80;;
870;SDS011;422;51.280;7.236;2023-07-28T03:56:24;2.60;;;1.90;;
870;SDS011;422;51.280;7.236;2023-07-28T03:58:53;2.10;;;1.60;;
870;SDS011;422;51.280;7.236;2023-07-28T04:01:21;2.33;;;2.00;;
870;SDS011;422;51.280;7.236;2023-07-28T04:03:49;3.80;;;1.80;;
870;SDS011;422;51.280;7.236;2023-07-28T04:06:16;2.27;;;1.80;;
870;SDS011;422;51.280;7.236;2023-07-28T04:08:43;3.73;;;1.93;;
870;SDS011;422;51.280;7.236;2023-07-28T04:11:10;2.83;;;1.83;;
870;SDS011;422;51.280;7.236;2023-07-28T04:13:37;2.27;;;2.00;;
870;SDS011;422;51.280;7.236;2023-07-28T04:16:04;2.50;;;2.10;;
870;SDS011;422;51.280;7.236;2023-07-28T04:18:33;2.40;;;1.63;;
870;SDS011;422;51.280;7.236;2023-07-28T04:21:00;2.70;;;2.07;;
870;SDS011;422;51.280;7.236;2023-07-28T04:23:28;2.70;;;1.73;;
870;SDS011;422;51.280;7.236;2023-07-28T04:25:55;3.40;;;2.00;;
870;SDS011;422;51.280;7.236;2023-07-28T04:28:22;2.50;;;1.87;;
870;SDS011;422;51.280;7.236;2023-07-28T04:30:50;2.70;;;1.90;;
870;SDS011;422;51.280;7.236;2023-07-28T04:33:17;3.00;;;2.30;;
870;SDS011;422;51.280;7.236;2023-07-28T04:35:45;4.03;;;1.80;;
870;SDS011;422;51.280;7.236;2023-07-28T04:38:13;2.30;;;1.87;;
870;SDS011;422;51.280;7.236;2023-07-28T04:40:40;2.97;;;1.80;;
870;SDS011;422;51.280;7.236;2023-07-28T04:43:07;2.87;;;1.93;;
870;SDS011;422;51.280;7.236;2023-07-28T04:45:34;2.40;;;2.13;;
870;SDS011;422;51.280;7.236;2023-07-28T04:48:02;3.50;;;1.77;;
870;SDS011;422;51.280;7.236;2023-07-28T04:50:29;2.57;;;2.10;;
870;SDS011;422;51.280;7.236;2023-07-28T04:52:58;2.20;;;1.60;;
870;SDS011;422;51.280;7.236;2023-07-28T04:55:26;2.67;;;1.70;;
870;SDS011;422;51.280;7.236;2023-07-28T04:57:53;2.40;;;1.87;;
870;SDS011;422;51.280;7.236;2023-07-28T05:00:21;2.20;;;1.80;;
870;SDS011;422;51.280;7.236;2023-07-28T05:02:48;2.40;;;2.00;;
870;SDS011;422;51.280;7.236;2023-07-28T05:05:16;2.10;;;1.40;;
870;SDS011;422;51.280;7.236;2023-07-28T05:07:43;3.13;;;1.80;;
870;SDS011;422;51.280;7.236;2023-07-28T05:10:13;2.70;;;1.90;;
870;SDS011;422;51.280;7.236;2023-07-28T05:12:40;2.10;;;1.63;;
870;SDS011;422;51.280;7.236;2023-07-28T05:15:08;2.70;;;1.77;;
870;SDS011;422;51.280;7.236;2023-07-28T05:17:36;3.23;;;1.70;;
870;SDS011;422;51.280;7.236;2023-07-28T05:20:03;2.50;;;1.90;;
870;SDS011;422;51.280;7.236;2023-07-28T05:22:31;2.40;;;1.70;;
870;SDS011;422;51.280;7.236;2023-07-28T05:24:58;2.53;;;2.10;;
870;SDS011;422;51.280;7.236;2023-07-28T05:27:28;4.00;;;1.87;;
870;SDS011;422;51.280;7.236;2023-07-28T05:29:55;2.30;;;1.70;;
870;SDS011;422;51.280;7.236;2023-07-28T05:32:22;3.17;;;2.17;;
870;SDS011;422;51.280;7.236;2023-07-28T05:34:52;2.57;;;1.97;;
870;SDS011;422;51.280;7.236;2023-07-28T05:37:19;6.10;;;2.57;;
870;SDS011;422;51.280;7.236;2023-07-28T05:39:46;4.87;;;2.73;;
870;SDS011;422;51.280;7.236;2023-07-28T05:42:13;2.77;;;2.43;;
870;SDS011;422;51.280;7.236;2023-07-28T05:44:42;7.73;;;2.70;;
870;SDS011;422;51.280;7.236;2023-07-28T05:47:09;2.90;;;2.60;;
870;SDS011;422;51.280;7.236;2023-07-28T05:49:36;3.33;;;2.93;;
870;SDS011;422;51.280;7.236;2023-07-28T05:52:04;5.70;;;2.80;;
870;SDS011;422;51.280;7.236;2023-07-28T05:54:31;3.47;;;2.93;;
870;SDS011;422;51.280;7.236;2023-07-28T05:56:58;3.97;;;3.60;;
870;SDS011;422;51.280;7.236;2023-07-28T05:59:25;5.23;;;4.73;;
870;SDS011;422;51.280;7.236;2023-07-28T06:01:54;5.20;;;4.30;;
870;SDS011;422;51.280;7.236;2023-07-28T06:04:21;5.50;;;5.00;;
870;SDS011;422;51.280;7.236;2023-07-28T06:06:48;5.53;;;5.03;;
870;SDS011;422;51.280;7.236;2023-07-28T06:09:15;8.90;;;6.00;;
870;SDS011;422;51.280;7.236;2023-07-28T06:11:43;6.83;;;6.13;;
870;SDS011;422;51.280;7.236;2023-07-28T06:14:10;7.10;;;6.40;;
870;SDS011;422;51.280;7.236;2023-07-28T06:16:37;6.27;;;5.63;;
870;SDS011;422;51.280;7.236;2023-07-28T06:19:06;7.50;;;6.47;;
870;SDS011;422;51.280;7.236;2023-07-28T06:21:33;6.43;;;5.83;;
870;SDS011;422;51.280;7.236;2023-07-28T06:24:01;6.53;;;5.30;;
870;SDS011;422;51.280;7.236;2023-07-28T06:26:28;8.23;;;5.27;;
870;SDS011;422;51.280;7.236;2023-07-28T06:28:56;5.90;;;5.10;;
870;SDS011;422;51.280;7.236;2023-07-28T06:31:23;6.30;;;5.70;;
870;SDS011;422;51.280;7.236;2023-07-28T06:33:50;5.67;;;5.17;;
870;SDS011;422;51.280;7.236;2023-07-28T06:36:19;7.37;;;6.30;;
870;SDS011;422;51.280;7.236;2023-07-28T06:38:47;6.40;;;5.80;;
870;SDS011;422;51.280;7.236;2023-07-28T06:41:15;6.20;;;5.60;;
870;SDS011;422;51.280;7.236;2023-07-28T06:43:42;5.67;;;5.13;;
870;SDS011;422;51.280;7.236;2023-07-28T06:46:09;5.57;;;5.07;;
870;SDS011;422;51.280;7.236;2023-07-28T06:48:37;6.20;;;5.60;;
870;SDS011;422;51.280;7.236;2023-07-28T06:51:04;5.30;;;4.80;;
870;SDS011;422;51.280;7.236;2023-07-28T06:53:32;6.10;;;4.77;;
870;SDS011;422;51.280;7.236;2023-07-28T06:56:00;5.67;;;5.10;;
870;SDS011;422;51.280;7.236;2023-07-28T06:58:27;7.23;;;5.47;;
870;SDS011;422;51.280;7.236;2023-07-28T07:00:54;5.10;;;4.60;;
870;SDS011;422;51.280;7.236;2023-07-28T07:03:23;6.23;;;4.90;;
870;SDS011;422;51.280;7.236;2023-07-28T07:05:50;6.30;;;4.77;;
870;SDS011;422;51.280;7.236;2023-07-28T07:08:17;6.90;;;6.20;;
870;SDS011;422;51.280;7.236;2023-07-28T07:10:48;6.60;;;5.90;;
870;SDS011;422;51.280;7.236;2023-07-28T07:13:16;6.50;;;5.23;;
870;SDS011;422;51.280;7.236;2023-07-28T07:15:44;7.00;;;6.10;;
870;SDS011;422;51.280;7.236;2023-07-28T07:18:11;7.10;;;5.80;;
870;SDS011;422;51.280;7.236;2023-07-28T07:20:39;8.00;;;5.67;;
870;SDS011;422;51.280;7.236;2023-07-28T07:23:06;5.53;;;5.03;;
870;SDS011;422;51.280;7.236;2023-07-28T07:25:34;7.07;;;5.50;;
870;SDS011;422;51.280;7.236;2023-07-28T07:28:03;5.90;;;5.30;;
870;SDS011;422;51.280;7.236;2023-07-28T07:30:32;6.20;;;5.50;;
870;SDS011;422;51.280;7.236;2023-07-28T07:32:59;5.87;;;5.37;;
870;SDS011;422;51.280;7.236;2023-07-28T07:35:27;6.53;;;5.40;;
870;SDS011;422;51.280;7.236;2023-07-28T07:37:54;5.67;;;5.17;;
870;SDS011;422;51.280;7.236;2023-07-28T07:40:22;5.27;;;4.77;;
870;SDS011;422;51.280;7.236;2023-07-28T07:42:49;5.00;;;4.50;;
870;SDS011;422;51.280;7.236;2023-07-28T07:45:18;5.80;;;4.77;;
870;SDS011;422;51.280;7.236;2023-07-28T07:47:46;4.93;;;4.43;;
870;SDS011;422;51.280;7.236;2023-07-28T07:50:13;4.03;;;3.07;;
870;SDS011;422;51.280;7.236;2023-07-28T07:52:43;4.80;;;4.00;;
870;SDS011;422;51.280;7.236;2023-07-28T07:55:10;3.60;;;3.30;;
870;SDS011;422;51.280;7.236;2023-07-28T07:57:37;4.50;;;3.87;;
870;SDS011;422;51.280;7.236;2023-07-28T08:00:05;5.07;;;4.57;;
870;SDS011;422;51.280;7.236;2023-07-28T08:02:35;5.10;;;4.60;;
870;SDS011;422;51.280;7.236;2023-07-28T08:05:02;5.50;;;4.83;;
870;SDS011;422;51.280;7.236;2023-07-28T08:07:30;7.73;;;4.37;;
870;SDS011;422;51.280;7.236;2023-07-28T08:09:58;5.47;;;4.97;;
870;SDS011;422;51.280;7.236;2023-07-28T08:12:25;4.73;;;4.23;;
870;SDS011;422;51.280;7.236;2023-07-28T08:14:53;6.40;;;4.10;;
870;SDS011;422;51.280;7.236;2023-07-28T08:17:20;5.00;;;4.07;;
870;SDS011;422;51.280;7.236;2023-07-28T08:19:49;4.00;;;3.60;;
870;SDS011;422;51.280;7.236;2023-07-28T08:22:17;3.20;;;2.87;;
870;SDS011;422;51.280;7.236;2023-07-28T08:24:44;4.40;;;2.67;;
870;SDS011;422;51.280;7.236;2023-07-28T08:27:11;4.07;;;2.57;;
870;SDS011;422;51.280;7.236;2023-07-28T08:29:39;2.97;;;2.50;;
870;SDS011;422;51.280;7.236;2023-07-28T08:32:06;3.73;;;2.93;;
870;SDS011;422;51.280;7.236;2023-07-28T08:34:34;4.20;;;3.00;;
870;SDS011;422;51.280;7.236;2023-07-28T08:37:03;3.57;;;3.07;;
870;SDS011;422;51.280;7.236;2023-07-28T08:39:32;4.83;;;4.33;;
870;SDS011;422;51.280;7.236;2023-07-28T08:42:00;4.63;;;4.00;;
870;SDS011;422;51.280;7.236;2023-07-28T08:44:29;4.90;;;4.40;;
870;SDS011;422;51.280;7.236;2023-07-28T08:47:00;5.10;;;4.60;;
870;SDS011;422;51.280;7.236;2023-07-28T08:49:28;5.03;;;4.63;;
870;SDS011;422;51.280;7.236;2023-07-28T08:51:58;5.40;;;4.90;;
870;SDS011;422;51.280;7.236;2023-07-28T08:54:27;5.80;;;5.20;;
870;SDS011;422;51.280;7.236;2023-07-28T08:56:57;5.63;;;5.13;;
870;SDS011;422;51.280;7.236;2023-07-28T08:59:28;6.17;;;5.67;;
870;SDS011;422;51.280;7.236;2023-07-28T09:01:56;6.67;;;6.13;;
870;SDS011;422;51.280;7.236;2023-07-28T09:04:25;8.60;;;7.47;;
870;SDS011;422;51.280;7.236;2023-07-28T09:06:53;7.40;;;6.70;;
870;SDS011;422;51.280;7.236;2023-07-28T09:09:21;7.50;;;6.80;;
870;SDS011;422;51.280;7.236;2023-07-28T09:11:51;7.50;;;6.80;;
870;SDS011;422;51.280;7.236;2023-07-28T09:14:20;7.97;;;7.27;;
870;SDS011;422;51.280;7.236;2023-07-28T09:16:50;8.97;;;8.07;;
870;SDS011;422;51.280;7.236;2023-07-28T09:19:19;9.00;;;8.20;;
870;SDS011;422;51.280;7.236;2023-07-28T09:21:57;8.30;;;7.50;;
870;SDS011;422;51.280;7.236;2023-07-28T09:24:29;9.53;;;8.73;;
870;SDS011;422;51.280;7.236;2023-07-28T09:26:59;9.73;;;8.60;;
870;SDS011;422;51.280;7.236;2023-07-28T09:29:27;10.80;;;9.87;;
870;SDS011;422;51.280;7.236;2023-07-28T09:32:03;11.60;;;10.60;;
870;SDS011;422;51.280;7.236;2023-07-28T09:34:34;10.37;;;9.47;;
870;SDS011;422;51.280;7.236;2023-07-28T09:37:04;12.27;;;11.17;;
870;SDS011;422;51.280;7.236;2023-07-28T09:39:34;12.10;;;11.00;;
870;SDS011;422;51.280;7.236;2023-07-28T09:42:05;13.60;;;12.20;;
870;SDS011;422;51.280;7.236;2023-07-28T09:44:35;11.33;;;10.23;;
870;SDS011;422;51.280;7.236;2023-07-28T09:47:03;11.70;;;10.50;;
870;SDS011;422;51.280;7.236;2023-07-28T09:49:34;11.40;;;10.30;;
870;SDS011;422;51.280;7.236;2023-07-28T09:52:04;11.20;;;10.20;;
870;SDS011;422;51.280;7.236;2023-07-28T09:54:34;10.27;;;8.20;;
870;SDS011;422;51.280;7.236;2023-07-28T09:57:07;11.00;;;10.00;;
870;SDS011;422;51.280;7.236;2023-07-28T09:59:38;10.20;;;9.20;;
870;SDS011;422;51.280;7.236;2023-07-28T10:02:07;9.27;;;8.47;;
870;SDS011;422;51.280;7.236;2023-07-28T10:04:35;8.43;;;7.63;;
870;SDS011;422;51.280;7.236;2023-07-28T10:07:04;8.83;;;8.03;;
870;SDS011;422;51.280;7.236;2023-07-28T10:09:32;7.27;;;6.57;;
870;SDS011;422;51.280;7.236;2023-07-28T10:12:02;8.80;;;7.90;;
870;SDS011;422;51.280;7.236;2023-07-28T10:14:34;8.83;;;8.00;;
870;SDS011;422;51.280;7.236;2023-07-28T10:17:03;9.43;;;8.63;;
870;SDS011;422;51.280;7.236;2023-07-28T10:19:33;9.70;;;8.90;;
870;SDS011;422;51.280;7.236;2023-07-28T10:22:02;10.67;;;9.67;;
870;SDS011;422;51.280;7.236;2023-07-28T10:24:50;9.93;;;9.03;;
870;SDS011;422;51.280;7.236;2023-07-28T10:27:35;9.23;;;8.47;;
870;SDS011;422;51.280;7.236;2023-07-28T10:30:11;8.80;;;8.10;;
870;SDS011;422;51.280;7.236;2023-07-28T10:32:39;8.90;;;8.20;;
870;SDS011;422;51.280;7.236;2023-07-28T10:35:08;8.53;;;7.30;;
870;SDS011;422;51.280;7.236;2023-07-28T10:37:49;7.93;;;7.23;;
870;SDS011;422;51.280;7.236;2023-07-28T10:40:23;7.03;;;6.43;;
870;SDS011;422;51.280;7.236;2023-07-28T10:42:55;5.90;;;5.40;;
870;SDS011;422;51.280;7.236;2023-07-28T10:45:25;5.97;;;5.47;;
870;SDS011;422;51.280;7.236;2023-07-28T10:47:54;5.57;;;5.10;;
870;SDS011;422;51.280;7.236;2023-07-28T10:50:25;6.13;;;5.53;;
870;SDS011;422;51.280;7.236;2023-07-28T10:52:54;5.10;;;4.70;;
870;SDS011;422;51.280;7.236;2023-07-28T10:55:22;5.33;;;4.20;;
870;SDS011;422;51.280;7.236;2023-07-28T10:57:50;4.87;;;4.37;;
870;SDS011;422;51.280;7.236;2023-07-28T11:00:19;5.77;;;5.37;;
870;SDS011;422;51.280;7.236;2023-07-28T11:02:51;5.53;;;5.00;;
870;SDS011;422;51.280;7.236;2023-07-28T11:05:19;5.73;;;5.33;;
870;SDS011;422;51.280;7.236;2023-07-28T11:07:48;7.13;;;4.87;;
870;SDS011;422;51.280;7.236;2023-07-28T11:10:16;5.03;;;4.60;;
870;SDS011;422;51.280;7.236;2023-07-28T11:12:46;6.80;;;4.50;;
870;SDS011;422;51.280;7.236;2023-07-28T11:15:16;6.60;;;4.40;;
870;SDS011;422;51.280;7.236;2023-07-28T11:17:45;4.30;;;3.90;;
870;SDS011;422;51.280;7.236;2023-07-28T11:20:16;4.00;;;3.33;;
870;SDS011;422;51.280;7.236;2023-07-28T11:22:45;5.37;;;4.87;;
870;SDS011;422;51.280;7.236;2023-07-28T11:25:13;4.90;;;4.10;;
870;SDS011;422;51.280;7.236;2023-07-28T11:27:41;3.50;;;3.20;;
870;SDS011;422;51.280;7.236;2023-07-28T11:30:09;4.23;;;3.83;;
870;SDS011;422;51.280;7.236;2023-07-28T11:32:38;4.33;;;4.03;;
870;SDS011;422;51.280;7.236;2023-07-28T11:35:06;4.37;;;3.97;;
870;SDS011;422;51.280;7.236;2023-07-28T11:37:36;7.43;;;4.30;;
870;SDS011;422;51.280;7.236;2023-07-28T11:40:05;4.30;;;4.00;;
870;SDS011;422;51.280;7.236;2023-07-28T11:42:36;5.07;;;4.30;;
870;SDS011;422;51.280;7.236;2023-07-28T11:45:05;6.63;;;4.00;;
870;SDS011;422;51.280;7.236;2023-07-28T11:47:33;3.50;;;3.20;;
870;SDS011;422;51.280;7.236;2023-07-28T11:50:01;5.73;;;4.20;;
870;SDS011;422;51.280;7.236;2023-07-28T11:52:30;4.07;;;3.70;;
870;SDS011;422;51.280;7.236;2023-07-28T11:54:59;3.03;;;2.60;;
870;SDS011;422;51.280;7.236;2023-07-28T11:57:27;2.97;;;2.67;;
870;SDS011;422;51.280;7.236;2023-07-28T11:59:57;2.40;;;2.13;;
870;SDS011;422;51.280;7.236;2023-07-28T12:02:26;3.20;;;2.90;;
870;SDS011;422;51.280;7.236;2023-07-28T12:04:54;3.47;;;2.70;;
870;SDS011;422;51.280;7.236;2023-07-28T12:07:27;2.50;;;2.30;;
870;SDS011;422;51.280;7.236;2023-07-28T12:09:55;2.80;;;2.40;;
870;SDS011;422;51.280;7.236;2023-07-28T12:12:26;3.90;;;2.57;;
870;SDS011;422;51.280;7.236;2023-07-28T12:14:55;3.30;;;2.43;;
870;SDS011;422;51.280;7.236;2023-07-28T12:17:24;2.47;;;2.13;;
870;SDS011;422;51.280;7.236;2023-07-28T12:20:00;2.63;;;2.43;;
870;SDS011;422;51.280;7.236;2023-07-28T12:22:36;4.10;;;2.47;;
870;SDS011;422;51.280;7.236;2023-07-28T12:25:04;2.30;;;2.10;;
870;SDS011;422;51.280;7.236;2023-07-28T12:27:33;3.00;;;2.70;;
870;SDS011;422;51.280;7.236;2023-07-28T12:30:00;3.53;;;2.03;;
870;SDS011;422;51.280;7.236;2023-07-28T12:32:29;5.57;;;3.00;;
870;SDS011;422;51.280;7.236;2023-07-28T12:34:56;2.53;;;2.03;;
870;SDS011;422;51.280;7.236;2023-07-28T12:37:23;2.27;;;2.03;;
870;SDS011;422;51.280;7.236;2023-07-28T12:39:51;3.07;;;2.77;;
870;SDS011;422;51.280;7.236;2023-07-28T12:42:18;2.40;;;2.20;;
870;SDS011;422;51.280;7.236;2023-07-28T12:44:47;3.30;;;3.00;;
870;SDS011;422;51.280;7.236;2023-07-28T12:47:14;3.03;;;2.63;;
870;SDS011;422;51.280;7.236;2023-07-28T12:49:42;3.27;;;2.70;;
870;SDS011;422;51.280;7.236;2023-07-28T12:52:09;3.20;;;2.90;;
870;SDS011;422;51.280;7.236;2023-07-28T12:54:37;3.17;;;2.50;;
870;SDS011;422;51.280;7.236;2023-07-28T12:57:05;2.90;;;2.60;;
870;SDS011;422;51.280;7.236;2023-07-28T12:59:34;2.40;;;2.17;;
870;SDS011;422;51.280;7.236;2023-07-28T13:02:03;3.67;;;2.67;;
870;SDS011;422;51.280;7.236;2023-07-28T13:04:31;2.60;;;2.40;;
870;SDS011;422;51.280;7.236;2023-07-28T13:06:58;2.63;;;2.43;;
870;SDS011;422;51.280;7.236;2023-07-28T13:09:26;3.13;;;2.73;;
870;SDS011;422;51.280;7.236;2023-07-28T13:11:53;2.93;;;2.60;;
870;SDS011;422;51.280;7.236;2023-07-28T13:14:21;3.33;;;2.53;;
870;SDS011;422;51.280;7.236;2023-07-28T13:16:48;4.93;;;2.97;;
870;SDS011;422;51.280;7.236;2023-07-28T13:19:17;3.03;;;2.73;;
870;SDS011;422;51.280;7.236;2023-07-28T13:21:45;4.33;;;2.70;;
870;SDS011;422;51.280;7.236;2023-07-28T13:24:12;3.43;;;2.70;;
870;SDS011;422;51.280;7.236;2023-07-28T13:26:39;4.23;;;2.50;;
870;SDS011;422;51.280;7.236;2023-07-28T13:29:07;4.43;;;2.90;;
870;SDS011;422;51.280;7.236;2023-07-28T13:31:34;5.63;;;3.00;;
870;SDS011;422;51.280;7.236;2023-07-28T13:34:02;3.10;;;2.80;;
870;SDS011;422;51.280;7.236;2023-07-28T13:36:30;2.80;;;2.20;;
870;SDS011;422;51.280;7.236;2023-07-28T13:38:58;3.10;;;2.80;;
870;SDS011;422;51.280;7.236;2023-07-28T13:41:25;3.20;;;2.57;;
870;SDS011;422;51.280;7.236;2023-07-28T13:43:52;2.70;;;2.30;;
870;SDS011;422;51.280;7.236;2023-07-28T13:46:19;3.40;;;2.80;;
870;SDS011;422;51.280;7.236;2023-07-28T13:48:47;2.93;;;2.40;;
870;SDS011;422;51.280;7.236;2023-07-28T13:51:15;3.10;;;2.57;;
870;SDS011;422;51.280;7.236;2023-07-28T13:53:43;3.50;;;1.83;;
870;SDS011;422;51.280;7.236;2023-07-28T13:56:11;2.53;;;2.33;;
870;SDS011;422;51.280;7.236;2023-07-28T13:58:38;3.00;;;2.30;;
870;SDS011;422;51.280;7.236;2023-07-28T14:01:05;2.50;;;2.30;;
870;SDS011;422;51.280;7.236;2023-07-28T14:03:33;3.67;;;3.27;;
870;SDS011;422;51.280;7.236;2023-07-28T14:06:00;3.47;;;3.17;;
870;SDS011;422;51.280;7.236;2023-07-28T14:08:28;3.10;;;2.77;;
870;SDS011;422;51.280;7.236;2023-07-28T14:10:56;3.40;;;3.10;;
870;SDS011;422;51.280;7.236;2023-07-28T14:13:24;3.90;;;2.80;;
870;SDS011;422;51.280;7.236;2023-07-28T14:15:51;3.30;;;2.30;;
870;SDS011;422;51.280;7.236;2023-07-28T14:18:19;3.30;;;2.70;;
870;SDS011;422;51.280;7.236;2023-07-28T14:20:46;2.83;;;2.33;;
870;SDS011;422;51.280;7.236;2023-07-28T14:23:21;2.60;;;2.20;;
870;SDS011;422;51.280;7.236;2023-07-28T14:25:50;2.60;;;2.40;;
870;SDS011;422;51.280;7.236;2023-07-28T14:28:20;2.83;;;2.27;;
870;SDS011;422;51.280;7.236;2023-07-28T14:30:47;2.40;;;2.20;;
870;SDS011;422;51.280;7.236;2023-07-28T14:33:16;2.80;;;2.50;;
870;SDS011;422;51.280;7.236;2023-07-28T14:35:45;2.73;;;2.53;;
870;SDS011;422;51.280;7.236;2023-07-28T14:38:13;2.60;;;2.03;;
870;SDS011;422;51.280;7.236;2023-07-28T14:40:41;2.57;;;2.00;;
870;SDS011;422;51.280;7.236;2023-07-28T14:43:13;3.57;;;2.20;;
870;SDS011;422;51.280;7.236;2023-07-28T14:45:42;2.70;;;2.50;;
870;SDS011;422;51.280;7.236;2023-07-28T14:48:09;2.53;;;2.03;;
870;SDS011;422;51.280;7.236;2023-07-28T14:50:37;3.13;;;2.17;;
870;SDS011;422;51.280;7.236;2023-07-28T14:55:59;3.10;;;2.30;;
870;SDS011;422;51.280;7.236;2023-07-28T14:58:27;2.77;;;2.40;;
870;SDS011;422;51.280;7.236;2023-07-28T15:00:57;2.60;;;2.10;;
870;SDS011;422;51.280;7.236;2023-07-28T15:03:30;2.60;;;2.07;;
870;SDS011;422;51.280;7.236;2023-07-28T15:05:57;2.70;;;2.40;;
870;SDS011;422;51.280;7.236;2023-07-28T15:08:25;2.60;;;2.07;;
870;SDS011;422;51.280;7.236;2023-07-28T15:10:53;2.70;;;2.40;;
870;SDS011;422;51.280;7.236;2023-07-28T15:13:20;4.87;;;2.60;;
870;SDS011;422;51.280;7.236;2023-07-28T15:15:47;2.40;;;2.10;;
870;SDS011;422;51.280;7.236;2023-07-28T15:18:17;2.33;;;2.13;;
870;SDS011;422;51.280;7.236;2023-07-28T15:20:44;2.73;;;2.40;;
870;SDS011;422;51.280;7.236;2023-07-28T15:23:13;2.40;;;2.00;;
870;SDS011;422;51.280;7.236;2023-07-28T15:25:40;2.70;;;2.40;;
870;SDS011;422;51.280;7.236;2023-07-28T15:28:11;2.80;;;2.33;;
870;SDS011;422;51.280;7.236;2023-07-28T15:30:39;3.40;;;2.70;;
870;SDS011;422;51.280;7.236;2023-07-28T15:33:07;3.07;;;2.53;;
870;SDS011;422;51.280;7.236;2023-07-28T15:35:38;2.67;;;2.40;;
870;SDS011;422;51.280;7.236;2023-07-28T15:38:06;2.97;;;2.53;;
870;SDS011;422;51.280;7.236;2023-07-28T15:40:34;2.23;;;1.90;;
870;SDS011;422;51.280;7.236;2023-07-28T15:43:02;2.40;;;2.10;;
870;SDS011;422;51.280;7.236;2023-07-28T15:45:30;2.90;;;2.10;;
870;SDS011;422;51.280;7.236;2023-07-28T15:47:58;2.27;;;1.97;;
870;SDS011;422;51.280;7.236;2023-07-28T15:50:26;2.50;;;2.23;;
870;SDS011;422;51.280;7.236;2023-07-28T15:52:56;2.43;;;2.20;;
870;SDS011;422;51.280;7.236;2023-07-28T15:55:25;4.30;;;2.20;;